sensor_id;sensor_type;location;lat;lon;timestamp;pressure;altitude;pressure_sealevel;temperature;humidity
33554;BME280;19885;42.208;24.952;2023-05-17T03:59:23;99382.06;;;15.42;97.06
33554;BME280;19885;42.208;24.952;2023-05-17T04:01:48;99381.06;;;15.51;96.88
33554;BME280;19885;42.208;24.952;2023-05-17T04:04:13;99380.97;;;15.54;96.52
33554;BME280;19885;42.208;24.952;2023-05-17T04:06:39;99391.91;;;15.31;97.72
33554;BME280;19885;42.208;24.952;2023-05-17T04:09:05;99398.53;;;15.06;98.60
33554;BME280;19885;42.208;24.952;2023-05-17T04:11:31;99396.06;;;14.98;99.52
33554;BME280;19885;42.208;24.952;2023-05-17T04:14:00;99405.00;;;14.88;100.00
33554;BME280;19885;42.208;24.952;2023-05-17T04:16:26;99399.78;;;14.87;100.00
33554;BME280;19885;42.208;24.952;2023-05-17T04:24:03;99402.19;;;15.43;98.95
33554;BME280;19885;42.208;24.952;2023-05-17T04:26:28;99409.22;;;15.44;98.81
33554;BME280;19885;42.208;24.952;2023-05-17T04:28:54;99408.75;;;15.21;99.70
33554;BME280;19885;42.208;24.952;2023-05-17T04:31:20;99397.25;;;15.28;99.82
33554;BME280;19885;42.208;24.952;2023-05-17T04:33:46;99405.41;;;15.13;100.00
33554;BME280;19885;42.208;24.952;2023-05-17T04:36:11;99403.69;;;15.12;100.00
33554;BME280;19885;42.208;24.952;2023-05-17T04:38:38;99409.28;;;15.38;99.80
33554;BME280;19885;42.208;24.952;2023-05-17T04:41:05;99375.22;;;15.35;99.64
33554;BME280;19885;42.208;24.952;2023-05-17T04:43:31;99407.31;;;15.51;100.00
33554;BME280;19885;42.208;24.952;2023-05-17T04:45:56;99406.19;;;15.62;99.55
33554;BME280;19885;42.208;24.952;2023-05-17T04:48:22;99397.59;;;15.54;99.07
33554;BME280;19885;42.208;24.952;2023-05-17T04:50:47;99387.41;;;15.81;98.89
33554;BME280;19885;42.208;24.952;2023-05-17T04:53:13;99386.38;;;15.88;98.53
33554;BME280;19885;42.208;24.952;2023-05-17T04:55:39;99383.19;;;16.12;97.63
33554;BME280;19885;42.208;24.952;2023-05-17T04:58:04;99385.66;;;16.18;95.82
33554;BME280;19885;42.208;24.952;2023-05-17T05:00:30;99391.63;;;16.26;96.53
33554;BME280;19885;42.208;24.952;2023-05-17T05:02:55;99399.72;;;16.17;96.39
33554;BME280;19885;42.208;24.952;2023-05-17T11:04:18;99406.41;;;17.31;100.00
33554;BME280;19885;42.208;24.952;2023-05-17T11:06:44;99400.84;;;17.42;100.00
33554;BME280;19885;42.208;24.952;2023-05-17T11:09:15;99393.41;;;17.57;100.00
33554;BME280;19885;42.208;24.952;2023-05-17T11:12:02;99390.56;;;17.65;100.00
33554;BME280;19885;42.208;24.952;2023-05-17T11:14:26;99385.97;;;17.71;100.00
33554;BME280;19885;42.208;24.952;2023-05-17T11:16:53;99384.81;;;17.51;100.00
33554;BME280;19885;42.208;24.952;2023-05-17T11:19:20;99372.22;;;17.30;100.00
33554;BME280;19885;42.208;24.952;2023-05-17T11:21:46;99381.13;;;17.56;100.00
33554;BME280;19885;42.208;24.952;2023-05-17T11:24:12;99378.13;;;17.68;100.00
33554;BME280;19885;42.208;24.952;2023-05-17T11:26:40;99374.47;;;17.74;100.00
33554;BME280;19885;42.208;24.952;2023-05-17T11:29:09;99379.53;;;17.80;100.00
33554;BME280;19885;42.208;24.952;2023-05-17T11:31:35;99373.31;;;17.83;100.00
33554;BME280;19885;42.208;24.952;2023-05-17T11:34:03;99379.47;;;17.83;100.00
33554;BME280;19885;42.208;24.952;2023-05-17T11:36:29;99372.38;;;17.85;100.00
33554;BME280;19885;42.208;24.952;2023-05-17T11:39:13;99367.94;;;17.86;100.00
33554;BME280;19885;42.208;24.952;2023-05-17T11:41:39;99373.13;;;17.89;100.00
33554;BME280;19885;42.208;24.952;2023-05-17T11:44:11;99371.22;;;17.94;100.00
33554;BME280;19885;42.208;24.952;2023-05-17T11:46:37;99379.53;;;17.80;100.00
33554;BME280;19885;42.208;24.952;2023-05-17T11:49:06;99383.72;;;17.58;100.00
33554;BME280;19885;42.208;24.952;2023-05-17T11:51:32;99382.91;;;17.85;100.00
33554;BME280;19885;42.208;24.952;2023-05-17T11:53:58;99390.56;;;17.93;100.00
33554;BME280;19885;42.208;24.952;2023-05-17T11:56:28;99383.28;;;17.73;100.00
33554;BME280;19885;42.208;24.952;2023-05-17T11:58:58;99387.25;;;17.86;100.00
33554;BME280;19885;42.208;24.952;2023-05-17T12:01:24;99391.16;;;18.02;100.00
33554;BME280;19885;42.208;24.952;2023-05-17T12:03:54;99384.81;;;17.80;100.00
33554;BME280;19885;42.208;24.952;2023-05-17T12:06:20;99384.44;;;17.92;100.00
33554;BME280;19885;42.208;24.952;2023-05-17T12:08:45;99392.97;;;18.00;100.00
33554;BME280;19885;42.208;24.952;2023-05-17T12:13:46;99383.97;;;18.07;100.00
33554;BME280;19885;42.208;24.952;2023-05-17T12:16:13;99378.63;;;17.52;100.00
33554;BME280;19885;42.208;24.952;2023-05-17T12:18:48;99379.25;;;17.89;100.00
33554;BME280;19885;42.208;24.952;2023-05-17T12:21:14;99381.63;;;17.98;100.00
33554;BME280;19885;42.208;24.952;2023-05-17T12:23:43;99369.25;;;17.42;100.00
33554;BME280;19885;42.208;24.952;2023-05-17T12:26:13;99371.72;;;17.17;100.00
33554;BME280;19885;42.208;24.952;2023-05-17T12:28:40;99368.63;;;17.32;100.00
33554;BME280;19885;42.208;24.952;2023-05-17T12:31:13;99360.66;;;17.35;100.00
33554;BME280;19885;42.208;24.952;2023-05-17T12:33:41;99367.66;;;17.67;100.00
33554;BME280;19885;42.208;24.952;2023-05-17T12:36:10;99372.16;;;17.31;100.00
33554;BME280;19885;42.208;24.952;2023-05-17T12:38:36;99365.44;;;17.53;100.00
33554;BME280;19885;42.208;24.952;2023-05-17T12:41:04;99366.91;;;17.62;100.00
33554;BME280;19885;42.208;24.952;2023-05-17T12:43:33;99364.09;;;17.68;100.00
33554;BME280;19885;42.208;24.952;2023-05-17T12:46:05;99367.09;;;17.56;100.00
33554;BME280;19885;42.208;24.952;2023-05-17T12:48:34;99359.38;;;17.48;100.00
33554;BME280;19885;42.208;24.952;2023-05-17T12:53:41;99364.28;;;17.62;100.00
33554;BME280;19885;42.208;24.952;2023-05-17T12:56:07;99361.50;;;17.66;100.00
33554;BME280;19885;42.208;24.952;2023-05-17T12:58:32;99354.41;;;17.38;100.00
33554;BME280;19885;42.208;24.952;2023-05-17T13:01:01;99346.72;;;17.62;100.00
33554;BME280;19885;42.208;24.952;2023-05-17T13:03:27;99346.44;;;17.71;100.00
33554;BME280;19885;42.208;24.952;2023-05-17T13:08:25;99347.31;;;17.70;100.00
33554;BME280;19885;42.208;24.952;2023-05-17T13:10:51;99340.47;;;17.65;100.00
33554;BME280;19885;42.208;24.952;2023-05-17T13:13:19;99343.94;;;17.67;100.00
33554;BME280;19885;42.208;24.952;2023-05-17T13:15:45;99342.31;;;17.61;100.00
33554;BME280;19885;42.208;24.952;2023-05-17T13:18:12;99343.50;;;17.51;100.00
33554;BME280;19885;42.208;24.952;2023-05-17T13:20:42;99341.28;;;17.36;100.00
33554;BME280;19885;42.208;24.952;2023-05-17T13:25:42;99330.13;;;16.97;100.00
33554;BME280;19885;42.208;24.952;2023-05-17T13:28:07;99329.63;;;16.83;100.00
33554;BME280;19885;42.208;24.952;2023-05-17T13:30:33;99337.94;;;17.00;100.00
33554;BME280;19885;42.208;24.952;2023-05-17T13:32:58;99328.44;;;17.26;100.00
33554;BME280;19885;42.208;24.952;2023-05-17T13:35:23;99332.66;;;17.31;100.00
33554;BME280;19885;42.208;24.952;2023-05-17T13:37:49;99334.56;;;16.95;100.00
33554;BME280;19885;42.208;24.952;2023-05-17T13:40:14;99331.28;;;16.87;100.00
33554;BME280;19885;42.208;24.952;2023-05-17T13:42:40;99334.56;;;16.95;100.00
33554;BME280;19885;42.208;24.952;2023-05-17T13:45:05;99327.84;;;17.45;100.00
33554;BME280;19885;42.208;24.952;2023-05-17T13:47:33;99331.09;;;17.24;100.00
33554;BME280;19885;42.208;24.952;2023-05-17T13:49:58;99341.41;;;17.02;100.00
33554;BME280;19885;42.208;24.952;2023-05-17T13:52:24;99333.75;;;16.93;100.00
33554;BME280;19885;42.208;24.952;2023-05-17T13:54:49;99335.00;;;16.80;100.00
33554;BME280;19885;42.208;24.952;2023-05-17T13:57:15;99330.94;;;17.30;100.00
33554;BME280;19885;42.208;24.952;2023-05-17T13:59:43;99330.16;;;17.27;100.00
33554;BME280;19885;42.208;24.952;2023-05-17T14:02:09;99327.75;;;16.88;100.00
33554;BME280;19885;42.208;24.952;2023-05-17T14:04:34;99322.22;;;16.65;100.00
33554;BME280;19885;42.208;24.952;2023-05-17T14:07:00;99325.03;;;16.59;100.00
33554;BME280;19885;42.208;24.952;2023-05-17T14:09:27;99318.19;;;17.15;100.00
33554;BME280;19885;42.208;24.952;2023-05-17T14:11:56;99323.78;;;17.35;100.00
33554;BME280;19885;42.208;24.952;2023-05-17T14:14:22;99315.47;;;17.49;100.00
33554;BME280;19885;42.208;24.952;2023-05-17T14:16:50;99313.44;;;16.98;100.00
33554;BME280;19885;42.208;24.952;2023-05-17T14:19:15;99308.31;;;16.92;100.00
33554;BME280;19885;42.208;24.952;2023-05-17T14:21:40;99311.44;;;17.06;100.00
33554;BME280;19885;42.208;24.952;2023-05-17T14:24:05;99304.19;;;17.44;100.00
33554;BME280;19885;42.208;24.952;2023-05-17T14:26:31;99307.66;;;17.46;100.00
33554;BME280;19885;42.208;24.952;2023-05-17T14:28:56;99306.69;;;17.19;100.00
33554;BME280;19885;42.208;24.952;2023-05-17T14:31:21;99299.97;;;16.78;100.00
33554;BME280;19885;42.208;24.952;2023-05-17T14:33:46;99265.84;;;17.04;100.00
33554;BME280;19885;42.208;24.952;2023-05-17T14:36:12;99293.53;;;17.48;100.00
33554;BME280;19885;42.208;24.952;2023-05-17T14:38:37;99292.94;;;17.68;100.00
33554;BME280;19885;42.208;24.952;2023-05-17T14:41:02;99289.13;;;17.76;100.00
33554;BME280;19885;42.208;24.952;2023-05-17T14:43:30;99290.00;;;17.77;100.00
33554;BME280;19885;42.208;24.952;2023-05-17T14:45:55;99289.41;;;17.69;100.00
33554;BME280;19885;42.208;24.952;2023-05-17T14:48:21;99291.44;;;17.87;100.00
33554;BME280;19885;42.208;24.952;2023-05-17T14:50:46;99292.13;;;17.94;100.00
33554;BME280;19885;42.208;24.952;2023-05-17T14:53:11;99289.41;;;17.95;100.00
33554;BME280;19885;42.208;24.952;2023-05-17T14:55:37;99279.81;;;17.93;100.00
33554;BME280;19885;42.208;24.952;2023-05-17T14:58:02;99291.19;;;17.95;100.00
33554;BME280;19885;42.208;24.952;2023-05-17T15:00:27;99286.75;;;17.97;100.00
33554;BME280;19885;42.208;24.952;2023-05-17T15:02:53;99277.03;;;17.97;100.00
33554;BME280;19885;42.208;24.952;2023-05-17T15:05:18;99270.88;;;17.98;100.00
33554;BME280;19885;42.208;24.952;2023-05-17T16:53:08;99302.09;;;17.84;100.00
33554;BME280;19885;42.208;24.952;2023-05-17T16:55:34;99304.72;;;17.84;100.00
33554;BME280;19885;42.208;24.952;2023-05-17T16:58:00;99306.31;;;17.90;100.00
33554;BME280;19885;42.208;24.952;2023-05-17T17:00:25;99306.41;;;17.87;100.00
33554;BME280;19885;42.208;24.952;2023-05-17T17:02:51;99303.69;;;17.88;100.00
33554;BME280;19885;42.208;24.952;2023-05-17T17:05:16;99315.19;;;17.87;100.00
33554;BME280;19885;42.208;24.952;2023-05-17T17:07:41;99311.66;;;17.87;100.00
33554;BME280;19885;42.208;24.952;2023-05-17T17:10:10;99320.63;;;17.81;100.00
33554;BME280;19885;42.208;24.952;2023-05-17T17:12:35;99315.06;;;17.02;100.00
33554;BME280;19885;42.208;24.952;2023-05-17T17:15:00;99319.84;;;16.56;100.00
33554;BME280;19885;42.208;24.952;2023-05-17T17:17:26;99307.50;;;16.60;100.00
33554;BME280;19885;42.208;24.952;2023-05-17T17:19:51;99299.59;;;16.92;100.00
33554;BME280;19885;42.208;24.952;2023-05-17T17:22:17;99305.72;;;16.60;100.00
33554;BME280;19885;42.208;24.952;2023-05-17T17:24:42;99300.59;;;16.54;100.00
33554;BME280;19885;42.208;24.952;2023-05-17T17:27:08;99302.69;;;16.40;100.00
33554;BME280;19885;42.208;24.952;2023-05-17T17:29:33;99299.66;;;16.23;100.00
33554;BME280;19885;42.208;24.952;2023-05-17T17:31:59;99297.66;;;16.66;100.00
33554;BME280;19885;42.208;24.952;2023-05-17T17:34:24;99303.25;;;16.19;100.00
33554;BME280;19885;42.208;24.952;2023-05-17T17:36:50;99305.56;;;16.31;100.00
33554;BME280;19885;42.208;24.952;2023-05-17T17:39:15;99312.56;;;16.32;100.00
33554;BME280;19885;42.208;24.952;2023-05-17T17:41:41;99314.41;;;16.28;100.00
33554;BME280;19885;42.208;24.952;2023-05-17T17:44:07;99318.00;;;16.26;100.00
33554;BME280;19885;42.208;24.952;2023-05-17T17:46:32;99325.94;;;16.23;100.00
33554;BME280;19885;42.208;24.952;2023-05-17T17:48:57;99330.06;;;16.68;100.00
33554;BME280;19885;42.208;24.952;2023-05-17T17:51:23;99331.03;;;16.96;100.00
33554;BME280;19885;42.208;24.952;2023-05-17T17:53:51;99332.25;;;17.16;100.00
33554;BME280;19885;42.208;24.952;2023-05-17T17:58:57;99329.81;;;17.39;100.00
33554;BME280;19885;42.208;24.952;2023-05-17T18:01:24;99336.03;;;17.36;100.00
33554;BME280;19885;42.208;24.952;2023-05-17T18:03:50;99342.75;;;17.46;100.00
33554;BME280;19885;42.208;24.952;2023-05-17T18:06:15;99341.72;;;17.52;100.00
33554;BME280;19885;42.208;24.952;2023-05-17T18:08:40;99346.84;;;17.58;100.00
33554;BME280;19885;42.208;24.952;2023-05-17T18:11:06;99353.69;;;17.63;100.00
33554;BME280;19885;42.208;24.952;2023-05-17T18:13:31;99357.00;;;17.70;100.00
33554;BME280;19885;42.208;24.952;2023-05-17T18:15:56;99356.25;;;17.66;100.00
33554;BME280;19885;42.208;24.952;2023-05-17T18:18:21;99357.88;;;17.70;100.00
33554;BME280;19885;42.208;24.952;2023-05-17T18:20:47;99357.09;;;17.67;100.00
33554;BME280;19885;42.208;24.952;2023-05-17T18:23:12;99353.53;;;17.68;100.00
33554;BME280;19885;42.208;24.952;2023-05-17T18:28:13;99360.56;;;17.69;100.00
33554;BME280;19885;42.208;24.952;2023-05-17T18:30:38;99364.97;;;17.68;100.00
33554;BME280;19885;42.208;24.952;2023-05-17T18:33:04;99364.91;;;17.70;100.00
33554;BME280;19885;42.208;24.952;2023-05-17T18:35:31;99355.44;;;17.63;100.00
33554;BME280;19885;42.208;24.952;2023-05-17T18:37:56;99352.66;;;17.69;100.00
33554;BME280;19885;42.208;24.952;2023-05-17T18:40:21;99355.22;;;17.70;100.00
33554;BME280;19885;42.208;24.952;2023-05-17T18:42:46;99349.97;;;17.70;100.00
33554;BME280;19885;42.208;24.952;2023-05-17T18:45:12;99361.31;;;17.72;100.00
33554;BME280;19885;42.208;24.952;2023-05-17T18:47:37;99357.81;;;17.72;100.00
33554;BME280;19885;42.208;24.952;2023-05-17T18:50:06;99363.94;;;17.74;100.00
33554;BME280;19885;42.208;24.952;2023-05-17T18:52:31;99361.69;;;17.60;100.00
33554;BME280;19885;42.208;24.952;2023-05-17T18:54:57;99368.31;;;17.43;100.00
33554;BME280;19885;42.208;24.952;2023-05-17T18:57:23;99372.97;;;17.35;100.00
33554;BME280;19885;42.208;24.952;2023-05-17T18:59:48;99379.13;;;17.34;100.00
33554;BME280;19885;42.208;24.952;2023-05-17T19:02:14;99370.81;;;17.47;100.00
33554;BME280;19885;42.208;24.952;2023-05-17T19:04:39;99378.63;;;17.52;100.00
33554;BME280;19885;42.208;24.952;2023-05-17T19:07:05;99380.28;;;17.56;100.00
33554;BME280;19885;42.208;24.952;2023-05-17T19:09:30;99379.16;;;17.63;100.00
33554;BME280;19885;42.208;24.952;2023-05-17T19:11:57;99373.75;;;17.69;100.00
33554;BME280;19885;42.208;24.952;2023-05-17T19:14:23;99372.81;;;17.70;100.00
33554;BME280;19885;42.208;24.952;2023-05-17T19:16:48;99382.47;;;17.71;100.00
33554;BME280;19885;42.208;24.952;2023-05-17T19:19:15;99384.22;;;17.40;100.00
33554;BME280;19885;42.208;24.952;2023-05-17T19:21:41;99375.03;;;17.24;100.00
33554;BME280;19885;42.208;24.952;2023-05-17T19:24:06;99379.13;;;17.03;100.00
33554;BME280;19885;42.208;24.952;2023-05-17T19:26:31;99379.44;;;17.23;100.00
33554;BME280;19885;42.208;24.952;2023-05-17T19:28:57;99374.84;;;17.30;100.00
33554;BME280;19885;42.208;24.952;2023-05-17T19:31:22;99372.03;;;17.05;100.00
33554;BME280;19885;42.208;24.952;2023-05-17T19:33:47;99372.81;;;17.08;100.00
33554;BME280;19885;42.208;24.952;2023-05-17T19:36:13;99361.81;;;16.94;100.00
33554;BME280;19885;42.208;24.952;2023-05-17T19:38:38;99371.75;;;16.83;100.00
33554;BME280;19885;42.208;24.952;2023-05-17T19:41:03;99371.88;;;16.79;100.00
33554;BME280;19885;42.208;24.952;2023-05-17T19:43:28;99370.13;;;16.44;100.00
33554;BME280;19885;42.208;24.952;2023-05-17T19:45:56;99362.00;;;16.18;100.00
33554;BME280;19885;42.208;24.952;2023-05-17T19:48:21;99353.28;;;16.16;100.00
33554;BME280;19885;42.208;24.952;2023-05-17T19:50:48;99351.81;;;16.04;100.00
33554;BME280;19885;42.208;24.952;2023-05-17T19:53:13;99344.50;;;15.80;100.00
33554;BME280;19885;42.208;24.952;2023-05-17T19:55:42;99338.59;;;15.70;100.00
33554;BME280;19885;42.208;24.952;2023-05-17T19:58:07;99338.88;;;15.57;100.00
33554;BME280;19885;42.208;24.952;2023-05-17T20:00:32;99335.50;;;15.52;100.00
33554;BME280;19885;42.208;24.952;2023-05-17T20:02:58;99345.00;;;15.57;100.00
33554;BME280;19885;42.208;24.952;2023-05-17T20:05:23;99337.19;;;15.56;100.00
33554;BME280;19885;42.208;24.952;2023-05-17T20:10:31;99341.47;;;15.60;100.00
33554;BME280;19885;42.208;24.952;2023-05-17T20:12:56;99331.16;;;15.51;100.00
33554;BME280;19885;42.208;24.952;2023-05-17T20:15:22;99335.19;;;15.65;100.00
33554;BME280;19885;42.208;24.952;2023-05-17T20:17:48;99329.81;;;15.72;100.00
33554;BME280;19885;42.208;24.952;2023-05-17T20:20:14;99335.91;;;15.74;100.00
33554;BME280;19885;42.208;24.952;2023-05-17T20:22:39;99332.34;;;15.75;100.00
33554;BME280;19885;42.208;24.952;2023-05-17T20:25:06;99326.09;;;15.80;100.00
33554;BME280;19885;42.208;24.952;2023-05-17T20:27:31;99321.41;;;15.94;100.00
33554;BME280;19885;42.208;24.952;2023-05-17T20:29:57;99324.47;;;15.76;100.00
33554;BME280;19885;42.208;24.952;2023-05-17T20:32:22;99319.50;;;15.62;100.00
33554;BME280;19885;42.208;24.952;2023-05-17T20:34:47;99319.72;;;15.52;100.00
33554;BME280;19885;42.208;24.952;2023-05-17T20:37:12;99324.72;;;15.64;100.00
33554;BME280;19885;42.208;24.952;2023-05-17T20:39:38;99317.47;;;15.75;100.00
33554;BME280;19885;42.208;24.952;2023-05-17T20:42:03;99324.56;;;15.72;100.00
33554;BME280;19885;42.208;24.952;2023-05-17T20:44:29;99324.56;;;15.72;100.00
33554;BME280;19885;42.208;24.952;2023-05-17T20:46:57;99333.94;;;15.82;100.00
33554;BME280;19885;42.208;24.952;2023-05-17T20:49:22;99334.31;;;16.03;100.00
33554;BME280;19885;42.208;24.952;2023-05-17T20:51:48;99328.91;;;16.09;100.00
33554;BME280;19885;42.208;24.952;2023-05-17T20:54:13;99331.50;;;16.11;100.00
33554;BME280;19885;42.208;24.952;2023-05-17T20:56:38;99331.09;;;15.92;100.00
33554;BME280;19885;42.208;24.952;2023-05-17T20:59:04;99334.09;;;15.76;100.00
33554;BME280;19885;42.208;24.952;2023-05-17T21:01:30;99337.69;;;15.72;100.00
33554;BME280;19885;42.208;24.952;2023-05-17T21:03:55;99336.16;;;15.61;100.00
33554;BME280;19885;42.208;24.952;2023-05-17T21:06:21;99340.50;;;15.64;100.00
33554;BME280;19885;42.208;24.952;2023-05-17T21:08:47;99336.88;;;15.68;100.00
33554;BME280;19885;42.208;24.952;2023-05-17T21:11:12;99333.78;;;15.89;100.00
33554;BME280;19885;42.208;24.952;2023-05-17T21:13:44;99338.22;;;15.87;100.00
33554;BME280;19885;42.208;24.952;2023-05-17T21:16:10;99337.34;;;15.87;100.00
33554;BME280;19885;42.208;24.952;2023-05-17T21:18:35;99342.28;;;15.62;100.00
33554;BME280;19885;42.208;24.952;2023-05-17T21:21:00;99334.56;;;15.56;100.00
33554;BME280;19885;42.208;24.952;2023-05-17T21:23:26;99341.34;;;15.64;100.00
33554;BME280;19885;42.208;24.952;2023-05-17T21:25:51;99338.53;;;15.74;100.00
33554;BME280;19885;42.208;24.952;2023-05-17T21:28:16;99338.31;;;15.81;100.00
33554;BME280;19885;42.208;24.952;2023-05-17T21:30:42;99337.44;;;15.82;100.00
33554;BME280;19885;42.208;24.952;2023-05-17T21:33:07;99336.47;;;15.86;100.00
33554;BME280;19885;42.208;24.952;2023-05-17T21:35:32;99334.81;;;15.82;100.00
33554;BME280;19885;42.208;24.952;2023-05-17T21:37:58;99332.22;;;15.81;100.00
33554;BME280;19885;42.208;24.952;2023-05-17T21:40:23;99333.06;;;15.81;100.00
33554;BME280;19885;42.208;24.952;2023-05-17T21:42:48;99333.22;;;15.75;100.00
33554;BME280;19885;42.208;24.952;2023-05-17T21:45:14;99336.19;;;15.60;100.00
33554;BME280;19885;42.208;24.952;2023-05-17T21:47:39;99326.56;;;15.60;100.00
33554;BME280;19885;42.208;24.952;2023-05-17T21:50:05;99331.72;;;15.65;100.00
33554;BME280;19885;42.208;24.952;2023-05-17T21:52:31;99335.91;;;15.72;100.00
33554;BME280;19885;42.208;24.952;2023-05-17T21:54:56;99330.53;;;15.77;100.00
33554;BME280;19885;42.208;24.952;2023-05-17T21:57:21;99326.09;;;15.80;100.00
33554;BME280;19885;42.208;24.952;2023-05-17T21:59:47;99319.00;;;15.84;100.00
33554;BME280;19885;42.208;24.952;2023-05-17T22:02:13;99321.63;;;15.84;100.00
33554;BME280;19885;42.208;24.952;2023-05-17T22:04:38;99335.59;;;15.86;100.00
33554;BME280;19885;42.208;24.952;2023-05-17T22:07:04;99329.38;;;15.90;100.00
33554;BME280;19885;42.208;24.952;2023-05-17T22:09:29;99336.41;;;15.89;100.00
33554;BME280;19885;42.208;24.952;2023-05-17T22:11:55;99337.28;;;15.90;100.00
33554;BME280;19885;42.208;24.952;2023-05-17T22:14:22;99332.03;;;15.90;100.00
33554;BME280;19885;42.208;24.952;2023-05-17T22:16:49;99326.94;;;15.82;100.00
33554;BME280;19885;42.208;24.952;2023-05-17T22:19:17;99332.22;;;15.81;100.00
33554;BME280;19885;42.208;24.952;2023-05-17T22:21:42;99336.56;;;15.83;100.00
33554;BME280;19885;42.208;24.952;2023-05-17T22:24:07;99330.44;;;15.83;100.00
33554;BME280;19885;42.208;24.952;2023-05-17T22:26:33;99329.59;;;15.81;100.00
33554;BME280;19885;42.208;24.952;2023-05-17T22:28:58;99337.34;;;15.87;100.00
33554;BME280;19885;42.208;24.952;2023-05-17T22:31:23;99343.41;;;15.89;100.00
33554;BME280;19885;42.208;24.952;2023-05-17T22:33:50;99345.28;;;15.85;100.00
33554;BME280;19885;42.208;24.952;2023-05-17T22:36:17;99348.81;;;15.83;100.00
33554;BME280;19885;42.208;24.952;2023-05-17T22:38:43;99345.28;;;15.84;100.00
33554;BME280;19885;42.208;24.952;2023-05-17T22:41:09;99344.34;;;15.86;100.00
33554;BME280;19885;42.208;24.952;2023-05-17T22:43:34;99341.00;;;15.80;100.00
33554;BME280;19885;42.208;24.952;2023-05-17T22:46:00;99332.13;;;15.84;100.00
33554;BME280;19885;42.208;24.952;2023-05-17T22:48:25;99334.13;;;15.74;100.00
33554;BME280;19885;42.208;24.952;2023-05-17T22:50:54;99339.28;;;15.79;100.00
33554;BME280;19885;42.208;24.952;2023-05-17T22:53:19;99337.50;;;15.81;100.00
33554;BME280;19885;42.208;24.952;2023-05-17T22:55:45;99333.19;;;15.77;100.00
33554;BME280;19885;42.208;24.952;2023-05-17T22:58:15;99330.44;;;15.83;100.00
33554;BME280;19885;42.208;24.952;2023-05-17T23:00:41;99334.03;;;15.79;100.00
33554;BME280;19885;42.208;24.952;2023-05-17T23:03:06;99324.53;;;15.73;100.00
33554;BME280;19885;42.208;24.952;2023-05-17T23:05:32;99319.53;;;15.61;100.00
33554;BME280;19885;42.208;24.952;2023-05-17T23:07:57;99323.91;;;15.62;100.00
33554;BME280;19885;42.208;24.952;2023-05-17T23:10:25;99319.00;;;15.45;100.00
33554;BME280;19885;42.208;24.952;2023-05-17T23:12:50;99315.53;;;15.43;100.00
33554;BME280;19885;42.208;24.952;2023-05-17T23:15:16;99318.03;;;15.49;100.00
33554;BME280;19885;42.208;24.952;2023-05-17T23:17:41;99309.31;;;15.49;100.00
33554;BME280;19885;42.208;24.952;2023-05-17T23:20:08;99311.13;;;15.45;100.00
33554;BME280;19885;42.208;24.952;2023-05-17T23:22:36;99306.03;;;15.36;100.00
33554;BME280;19885;42.208;24.952;2023-05-17T23:25:01;99298.31;;;15.30;100.00
33554;BME280;19885;42.208;24.952;2023-05-17T23:27:30;99306.97;;;15.35;100.00
33554;BME280;19885;42.208;24.952;2023-05-17T23:29:55;99307.75;;;15.39;100.00
33554;BME280;19885;42.208;24.952;2023-05-17T23:32:21;99310.66;;;15.25;100.00
33554;BME280;19885;42.208;24.952;2023-05-17T23:34:49;99303.94;;;15.12;100.00
33554;BME280;19885;42.208;24.952;2023-05-17T23:37:18;99302.94;;;15.18;100.00
33554;BME280;19885;42.208;24.952;2023-05-17T23:39:43;99299.47;;;15.17;100.00
33554;BME280;19885;42.208;24.952;2023-05-17T23:42:09;99301.44;;;15.06;100.00
33554;BME280;19885;42.208;24.952;2023-05-17T23:44:35;99307.53;;;15.08;100.00
33554;BME280;19885;42.208;24.952;2023-05-17T23:47:02;99299.66;;;15.08;100.00
33554;BME280;19885;42.208;24.952;2023-05-17T23:49:28;99302.22;;;15.11;100.00
33554;BME280;19885;42.208;24.952;2023-05-17T23:51:53;99300.72;;;14.98;100.00
33554;BME280;19885;42.208;24.952;2023-05-17T23:54:19;99300.59;;;15.04;100.00
33554;BME280;19885;42.208;24.952;2023-05-17T23:56:46;99295.63;;;14.92;100.00
33554;BME280;19885;42.208;24.952;2023-05-17T23:59:11;99289.44;;;14.94;100.00
